sensor_id;sensor_type;location;lat;lon;timestamp;P1;durP1;ratioP1;P2;durP2;ratioP2
4409;SDS011;2218;51.408;7.208;2022-09-09T00:02:10;0.70;;;0.40;;
4409;SDS011;2218;51.408;7.208;2022-09-09T00:04:47;0.70;;;0.50;;
4409;SDS011;2218;51.408;7.208;2022-09-09T00:07:30;0.80;;;0.40;;
4409;SDS011;2218;51.408;7.208;2022-09-09T00:10:15;0.70;;;0.50;;
4409;SDS011;2218;51.408;7.208;2022-09-09T00:12:54;0.60;;;0.40;;
4409;SDS011;2218;51.408;7.208;2022-09-09T00:15:31;0.70;;;0.40;;
4409;SDS011;2218;51.408;7.208;2022-09-09T00:18:12;0.70;;;0.40;;
4409;SDS011;2218;51.408;7.208;2022-09-09T00:20:49;0.60;;;0.40;;
4409;SDS011;2218;51.408;7.208;2022-09-09T00:23:30;0.73;;;0.43;;
4409;SDS011;2218;51.408;7.208;2022-09-09T00:26:04;0.70;;;0.50;;
4409;SDS011;2218;51.408;7.208;2022-09-09T00:28:41;1.10;;;0.50;;
4409;SDS011;2218;51.408;7.208;2022-09-09T00:31:18;0.97;;;0.53;;
4409;SDS011;2218;51.408;7.208;2022-09-09T00:33:52;0.70;;;0.40;;
4409;SDS011;2218;51.408;7.208;2022-09-09T00:36:21;0.97;;;0.40;;
4409;SDS011;2218;51.408;7.208;2022-09-09T00:38:55;0.80;;;0.50;;
4409;SDS011;2218;51.408;7.208;2022-09-09T00:41:29;0.70;;;0.50;;
4409;SDS011;2218;51.408;7.208;2022-09-09T00:44:17;0.70;;;0.40;;
4409;SDS011;2218;51.408;7.208;2022-09-09T00:46:59;0.80;;;0.40;;
4409;SDS011;2218;51.408;7.208;2022-09-09T00:49:49;0.70;;;0.40;;
4409;SDS011;2218;51.408;7.208;2022-09-09T00:52:30;0.80;;;0.50;;
4409;SDS011;2218;51.408;7.208;2022-09-09T00:55:07;0.70;;;0.40;;
4409;SDS011;2218;51.408;7.208;2022-09-09T00:57:47;0.70;;;0.40;;
4409;SDS011;2218;51.408;7.208;2022-09-09T01:00:19;0.70;;;0.50;;
4409;SDS011;2218;51.408;7.208;2022-09-09T01:02:54;0.70;;;0.40;;
4409;SDS011;2218;51.408;7.208;2022-09-09T01:05:39;1.13;;;0.60;;
4409;SDS011;2218;51.408;7.208;2022-09-09T01:08:20;0.80;;;0.40;;
4409;SDS011;2218;51.408;7.208;2022-09-09T01:11:10;1.10;;;0.40;;
4409;SDS011;2218;51.408;7.208;2022-09-09T01:13:49;0.70;;;0.40;;
4409;SDS011;2218;51.408;7.208;2022-09-09T01:16:28;0.70;;;0.43;;
4409;SDS011;2218;51.408;7.208;2022-09-09T01:18:59;0.70;;;0.43;;
4409;SDS011;2218;51.408;7.208;2022-09-09T01:21:33;0.70;;;0.40;;
4409;SDS011;2218;51.408;7.208;2022-09-09T01:24:22;0.70;;;0.40;;
4409;SDS011;2218;51.408;7.208;2022-09-09T01:27:13;0.70;;;0.50;;
4409;SDS011;2218;51.408;7.208;2022-09-09T01:29:44;0.87;;;0.40;;
4409;SDS011;2218;51.408;7.208;2022-09-09T01:35:19;0.70;;;0.40;;
4409;SDS011;2218;51.408;7.208;2022-09-09T01:38:06;0.70;;;0.40;;
4409;SDS011;2218;51.408;7.208;2022-09-09T01:40:34;0.70;;;0.40;;
4409;SDS011;2218;51.408;7.208;2022-09-09T01:43:03;0.70;;;0.40;;
4409;SDS011;2218;51.408;7.208;2022-09-09T01:45:31;0.87;;;0.50;;
4409;SDS011;2218;51.408;7.208;2022-09-09T01:47:59;0.70;;;0.40;;
4409;SDS011;2218;51.408;7.208;2022-09-09T01:50:40;0.70;;;0.40;;
4409;SDS011;2218;51.408;7.208;2022-09-09T01:53:08;0.70;;;0.40;;
4409;SDS011;2218;51.408;7.208;2022-09-09T01:55:38;0.67;;;0.40;;
4409;SDS011;2218;51.408;7.208;2022-09-09T01:58:19;0.70;;;0.40;;
4409;SDS011;2218;51.408;7.208;2022-09-09T02:01:02;1.07;;;0.40;;
4409;SDS011;2218;51.408;7.208;2022-09-09T02:03:43;0.70;;;0.40;;
4409;SDS011;2218;51.408;7.208;2022-09-09T02:06:23;0.70;;;0.40;;
4409;SDS011;2218;51.408;7.208;2022-09-09T02:09:05;0.70;;;0.40;;
4409;SDS011;2218;51.408;7.208;2022-09-09T02:11:38;0.70;;;0.40;;
4409;SDS011;2218;51.408;7.208;2022-09-09T02:14:20;0.70;;;0.40;;
4409;SDS011;2218;51.408;7.208;2022-09-09T02:16:54;2.30;;;0.40;;
4409;SDS011;2218;51.408;7.208;2022-09-09T02:19:41;0.70;;;0.40;;
4409;SDS011;2218;51.408;7.208;2022-09-09T02:22:22;0.70;;;0.40;;
4409;SDS011;2218;51.408;7.208;2022-09-09T02:24:54;0.70;;;0.40;;
4409;SDS011;2218;51.408;7.208;2022-09-09T02:27:28;0.70;;;0.40;;
4409;SDS011;2218;51.408;7.208;2022-09-09T02:29:57;0.70;;;0.40;;
4409;SDS011;2218;51.408;7.208;2022-09-09T02:32:36;0.70;;;0.40;;
4409;SDS011;2218;51.408;7.208;2022-09-09T02:35:12;0.70;;;0.40;;
4409;SDS011;2218;51.408;7.208;2022-09-09T02:37:44;0.70;;;0.50;;
4409;SDS011;2218;51.408;7.208;2022-09-09T02:40:12;0.73;;;0.50;;
4409;SDS011;2218;51.408;7.208;2022-09-09T02:42:46;0.70;;;0.40;;
4409;SDS011;2218;51.408;7.208;2022-09-09T02:45:19;0.90;;;0.40;;
4409;SDS011;2218;51.408;7.208;2022-09-09T02:47:51;1.93;;;0.40;;
4409;SDS011;2218;51.408;7.208;2022-09-09T02:50:29;1.07;;;0.50;;
4409;SDS011;2218;51.408;7.208;2022-09-09T02:53:06;0.70;;;0.40;;
4409;SDS011;2218;51.408;7.208;2022-09-09T02:55:41;1.03;;;0.40;;
4409;SDS011;2218;51.408;7.208;2022-09-09T02:58:16;0.70;;;0.40;;
4409;SDS011;2218;51.408;7.208;2022-09-09T03:00:55;0.70;;;0.40;;
4409;SDS011;2218;51.408;7.208;2022-09-09T03:03:26;0.67;;;0.40;;
4409;SDS011;2218;51.408;7.208;2022-09-09T03:05:54;0.67;;;0.40;;
4409;SDS011;2218;51.408;7.208;2022-09-09T03:08:22;0.70;;;0.40;;
4409;SDS011;2218;51.408;7.208;2022-09-09T03:10:49;0.70;;;0.40;;
4409;SDS011;2218;51.408;7.208;2022-09-09T03:13:19;0.70;;;0.40;;
4409;SDS011;2218;51.408;7.208;2022-09-09T03:15:47;0.70;;;0.40;;
4409;SDS011;2218;51.408;7.208;2022-09-09T03:18:19;0.70;;;0.50;;
4409;SDS011;2218;51.408;7.208;2022-09-09T03:20:49;0.73;;;0.40;;
4409;SDS011;2218;51.408;7.208;2022-09-09T03:23:18;0.70;;;0.40;;
4409;SDS011;2218;51.408;7.208;2022-09-09T03:25:46;0.70;;;0.50;;
4409;SDS011;2218;51.408;7.208;2022-09-09T03:28:16;0.60;;;0.40;;
4409;SDS011;2218;51.408;7.208;2022-09-09T03:30:42;0.67;;;0.40;;
4409;SDS011;2218;51.408;7.208;2022-09-09T03:33:10;0.60;;;0.40;;
4409;SDS011;2218;51.408;7.208;2022-09-09T03:35:44;0.70;;;0.40;;
4409;SDS011;2218;51.408;7.208;2022-09-09T03:38:15;0.70;;;0.40;;
4409;SDS011;2218;51.408;7.208;2022-09-09T03:40:48;0.70;;;0.40;;
4409;SDS011;2218;51.408;7.208;2022-09-09T03:43:17;0.70;;;0.40;;
4409;SDS011;2218;51.408;7.208;2022-09-09T03:45:45;1.23;;;0.50;;
4409;SDS011;2218;51.408;7.208;2022-09-09T03:48:14;1.03;;;0.40;;
4409;SDS011;2218;51.408;7.208;2022-09-09T03:50:45;0.90;;;0.47;;
4409;SDS011;2218;51.408;7.208;2022-09-09T03:53:13;0.80;;;0.43;;
4409;SDS011;2218;51.408;7.208;2022-09-09T03:55:43;0.90;;;0.40;;
4409;SDS011;2218;51.408;7.208;2022-09-09T03:58:11;0.70;;;0.40;;
4409;SDS011;2218;51.408;7.208;2022-09-09T04:00:39;2.10;;;0.50;;
4409;SDS011;2218;51.408;7.208;2022-09-09T04:03:10;0.70;;;0.40;;
4409;SDS011;2218;51.408;7.208;2022-09-09T04:05:39;0.70;;;0.50;;
4409;SDS011;2218;51.408;7.208;2022-09-09T04:08:09;1.07;;;0.50;;
4409;SDS011;2218;51.408;7.208;2022-09-09T04:10:36;0.70;;;0.40;;
4409;SDS011;2218;51.408;7.208;2022-09-09T04:13:04;0.70;;;0.50;;
4409;SDS011;2218;51.408;7.208;2022-09-09T04:15:31;0.80;;;0.40;;
4409;SDS011;2218;51.408;7.208;2022-09-09T04:18:01;0.67;;;0.43;;
4409;SDS011;2218;51.408;7.208;2022-09-09T04:20:27;0.70;;;0.40;;
4409;SDS011;2218;51.408;7.208;2022-09-09T04:22:55;0.73;;;0.40;;
4409;SDS011;2218;51.408;7.208;2022-09-09T04:25:24;1.47;;;0.47;;
4409;SDS011;2218;51.408;7.208;2022-09-09T04:27:53;0.70;;;0.40;;
4409;SDS011;2218;51.408;7.208;2022-09-09T04:30:20;1.67;;;0.40;;
4409;SDS011;2218;51.408;7.208;2022-09-09T04:32:47;0.70;;;0.40;;
4409;SDS011;2218;51.408;7.208;2022-09-09T04:35:15;0.90;;;0.50;;
4409;SDS011;2218;51.408;7.208;2022-09-09T04:37:44;0.70;;;0.50;;
4409;SDS011;2218;51.408;7.208;2022-09-09T04:40:10;0.70;;;0.40;;
4409;SDS011;2218;51.408;7.208;2022-09-09T04:42:40;0.70;;;0.40;;
4409;SDS011;2218;51.408;7.208;2022-09-09T04:45:11;0.70;;;0.40;;
4409;SDS011;2218;51.408;7.208;2022-09-09T04:47:39;0.70;;;0.40;;
4409;SDS011;2218;51.408;7.208;2022-09-09T04:50:07;0.70;;;0.40;;
4409;SDS011;2218;51.408;7.208;2022-09-09T04:52:35;0.70;;;0.50;;
4409;SDS011;2218;51.408;7.208;2022-09-09T04:55:02;0.70;;;0.50;;
4409;SDS011;2218;51.408;7.208;2022-09-09T04:57:31;0.70;;;0.40;;
4409;SDS011;2218;51.408;7.208;2022-09-09T04:59:59;0.70;;;0.40;;
4409;SDS011;2218;51.408;7.208;2022-09-09T05:02:32;0.70;;;0.40;;
4409;SDS011;2218;51.408;7.208;2022-09-09T05:05:03;0.70;;;0.40;;
4409;SDS011;2218;51.408;7.208;2022-09-09T05:07:32;0.60;;;0.40;;
4409;SDS011;2218;51.408;7.208;2022-09-09T05:09:59;0.97;;;0.40;;
4409;SDS011;2218;51.408;7.208;2022-09-09T05:12:26;0.70;;;0.40;;
4409;SDS011;2218;51.408;7.208;2022-09-09T05:14:54;0.70;;;0.40;;
4409;SDS011;2218;51.408;7.208;2022-09-09T05:17:22;0.63;;;0.40;;
4409;SDS011;2218;51.408;7.208;2022-09-09T05:19:50;0.67;;;0.40;;
4409;SDS011;2218;51.408;7.208;2022-09-09T05:22:18;1.80;;;0.43;;
4409;SDS011;2218;51.408;7.208;2022-09-09T05:24:47;0.70;;;0.40;;
4409;SDS011;2218;51.408;7.208;2022-09-09T05:27:16;0.70;;;0.40;;
4409;SDS011;2218;51.408;7.208;2022-09-09T05:29:46;0.63;;;0.40;;
4409;SDS011;2218;51.408;7.208;2022-09-09T05:32:13;0.70;;;0.50;;
4409;SDS011;2218;51.408;7.208;2022-09-09T05:34:46;0.60;;;0.40;;
4409;SDS011;2218;51.408;7.208;2022-09-09T05:37:13;0.63;;;0.40;;
4409;SDS011;2218;51.408;7.208;2022-09-09T05:39:41;0.70;;;0.40;;
4409;SDS011;2218;51.408;7.208;2022-09-09T05:42:08;0.80;;;0.40;;
4409;SDS011;2218;51.408;7.208;2022-09-09T05:44:36;0.70;;;0.40;;
4409;SDS011;2218;51.408;7.208;2022-09-09T05:47:04;0.70;;;0.40;;
4409;SDS011;2218;51.408;7.208;2022-09-09T05:49:31;0.90;;;0.40;;
4409;SDS011;2218;51.408;7.208;2022-09-09T05:52:00;0.70;;;0.40;;
4409;SDS011;2218;51.408;7.208;2022-09-09T05:54:29;0.70;;;0.43;;
4409;SDS011;2218;51.408;7.208;2022-09-09T05:56:56;0.90;;;0.50;;
4409;SDS011;2218;51.408;7.208;2022-09-09T05:59:23;3.67;;;0.40;;
4409;SDS011;2218;51.408;7.208;2022-09-09T06:01:53;0.70;;;0.40;;
4409;SDS011;2218;51.408;7.208;2022-09-09T06:04:25;1.10;;;0.50;;
4409;SDS011;2218;51.408;7.208;2022-09-09T06:06:52;1.33;;;0.40;;
4409;SDS011;2218;51.408;7.208;2022-09-09T06:09:22;1.00;;;0.40;;
4409;SDS011;2218;51.408;7.208;2022-09-09T06:11:49;0.70;;;0.40;;
4409;SDS011;2218;51.408;7.208;2022-09-09T06:14:16;0.70;;;0.40;;
4409;SDS011;2218;51.408;7.208;2022-09-09T06:16:46;0.70;;;0.40;;
4409;SDS011;2218;51.408;7.208;2022-09-09T06:19:17;0.73;;;0.40;;
4409;SDS011;2218;51.408;7.208;2022-09-09T06:21:46;0.90;;;0.40;;
4409;SDS011;2218;51.408;7.208;2022-09-09T06:24:14;5.83;;;1.60;;
4409;SDS011;2218;51.408;7.208;2022-09-09T06:26:45;0.90;;;0.50;;
4409;SDS011;2218;51.408;7.208;2022-09-09T06:29:18;0.70;;;0.40;;
4409;SDS011;2218;51.408;7.208;2022-09-09T06:31:45;0.70;;;0.40;;
4409;SDS011;2218;51.408;7.208;2022-09-09T06:34:15;0.80;;;0.50;;
4409;SDS011;2218;51.408;7.208;2022-09-09T06:36:46;0.60;;;0.40;;
4409;SDS011;2218;51.408;7.208;2022-09-09T06:39:13;0.70;;;0.40;;
4409;SDS011;2218;51.408;7.208;2022-09-09T06:41:41;0.90;;;0.50;;
4409;SDS011;2218;51.408;7.208;2022-09-09T06:44:22;0.70;;;0.40;;
4409;SDS011;2218;51.408;7.208;2022-09-09T06:46:51;1.57;;;0.60;;
4409;SDS011;2218;51.408;7.208;2022-09-09T06:49:19;1.50;;;0.40;;
4409;SDS011;2218;51.408;7.208;2022-09-09T06:51:47;1.83;;;0.50;;
4409;SDS011;2218;51.408;7.208;2022-09-09T06:54:15;0.70;;;0.40;;
4409;SDS011;2218;51.408;7.208;2022-09-09T06:56:44;0.80;;;0.50;;
4409;SDS011;2218;51.408;7.208;2022-09-09T06:59:18;4.50;;;0.70;;
4409;SDS011;2218;51.408;7.208;2022-09-09T07:01:47;3.63;;;1.00;;
4409;SDS011;2218;51.408;7.208;2022-09-09T07:04:16;3.53;;;0.83;;
4409;SDS011;2218;51.408;7.208;2022-09-09T07:06:44;4.93;;;0.90;;
4409;SDS011;2218;51.408;7.208;2022-09-09T07:09:20;3.23;;;0.90;;
4409;SDS011;2218;51.408;7.208;2022-09-09T07:11:50;4.10;;;1.17;;
4409;SDS011;2218;51.408;7.208;2022-09-09T07:14:20;4.20;;;1.17;;
4409;SDS011;2218;51.408;7.208;2022-09-09T07:16:53;2.73;;;0.90;;
4409;SDS011;2218;51.408;7.208;2022-09-09T07:19:21;1.37;;;0.90;;
4409;SDS011;2218;51.408;7.208;2022-09-09T07:21:51;2.17;;;1.27;;
4409;SDS011;2218;51.408;7.208;2022-09-09T07:24:20;3.00;;;1.30;;
4409;SDS011;2218;51.408;7.208;2022-09-09T07:26:48;3.37;;;1.00;;
4409;SDS011;2218;51.408;7.208;2022-09-09T07:29:15;1.40;;;0.97;;
4409;SDS011;2218;51.408;7.208;2022-09-09T07:31:42;3.53;;;1.03;;
4409;SDS011;2218;51.408;7.208;2022-09-09T07:34:14;1.60;;;0.90;;
4409;SDS011;2218;51.408;7.208;2022-09-09T07:36:41;1.80;;;0.60;;
4409;SDS011;2218;51.408;7.208;2022-09-09T07:39:11;3.27;;;1.03;;
4409;SDS011;2218;51.408;7.208;2022-09-09T07:41:45;1.63;;;0.90;;
4409;SDS011;2218;51.408;7.208;2022-09-09T07:44:18;2.43;;;1.00;;
4409;SDS011;2218;51.408;7.208;2022-09-09T07:46:54;2.70;;;0.93;;
4409;SDS011;2218;51.408;7.208;2022-09-09T07:49:28;1.43;;;0.97;;
4409;SDS011;2218;51.408;7.208;2022-09-09T07:51:55;1.53;;;0.80;;
4409;SDS011;2218;51.408;7.208;2022-09-09T07:54:22;3.70;;;0.90;;
4409;SDS011;2218;51.408;7.208;2022-09-09T07:56:50;5.67;;;1.00;;
4409;SDS011;2218;51.408;7.208;2022-09-09T07:59:20;4.53;;;1.13;;
4409;SDS011;2218;51.408;7.208;2022-09-09T08:01:51;4.43;;;1.30;;
4409;SDS011;2218;51.408;7.208;2022-09-09T08:04:22;1.83;;;1.17;;
4409;SDS011;2218;51.408;7.208;2022-09-09T08:06:53;7.57;;;1.33;;
4409;SDS011;2218;51.408;7.208;2022-09-09T08:09:25;3.20;;;1.00;;
4409;SDS011;2218;51.408;7.208;2022-09-09T08:12:00;2.57;;;0.90;;
4409;SDS011;2218;51.408;7.208;2022-09-09T08:14:28;3.17;;;1.20;;
4409;SDS011;2218;51.408;7.208;2022-09-09T08:16:56;2.73;;;1.20;;
4409;SDS011;2218;51.408;7.208;2022-09-09T08:19:25;2.80;;;1.30;;
4409;SDS011;2218;51.408;7.208;2022-09-09T08:21:56;3.50;;;0.90;;
4409;SDS011;2218;51.408;7.208;2022-09-09T08:24:23;1.80;;;1.10;;
4409;SDS011;2218;51.408;7.208;2022-09-09T08:26:50;1.63;;;0.87;;
4409;SDS011;2218;51.408;7.208;2022-09-09T08:29:21;3.27;;;0.87;;
4409;SDS011;2218;51.408;7.208;2022-09-09T08:31:50;1.37;;;0.90;;
4409;SDS011;2218;51.408;7.208;2022-09-09T08:34:20;5.23;;;1.20;;
4409;SDS011;2218;51.408;7.208;2022-09-09T08:36:49;1.80;;;1.00;;
4409;SDS011;2218;51.408;7.208;2022-09-09T08:39:23;1.33;;;0.80;;
4409;SDS011;2218;51.408;7.208;2022-09-09T08:41:57;2.17;;;0.90;;
4409;SDS011;2218;51.408;7.208;2022-09-09T08:44:51;2.30;;;0.80;;
4409;SDS011;2218;51.408;7.208;2022-09-09T08:47:42;2.07;;;1.10;;
4409;SDS011;2218;51.408;7.208;2022-09-09T08:50:30;1.70;;;0.80;;
4409;SDS011;2218;51.408;7.208;2022-09-09T08:53:24;3.80;;;1.00;;
4409;SDS011;2218;51.408;7.208;2022-09-09T08:55:57;4.70;;;1.10;;
4409;SDS011;2218;51.408;7.208;2022-09-09T08:58:42;1.43;;;1.00;;
4409;SDS011;2218;51.408;7.208;2022-09-09T09:01:18;2.63;;;1.10;;
4409;SDS011;2218;51.408;7.208;2022-09-09T09:04:11;1.60;;;0.90;;
4409;SDS011;2218;51.408;7.208;2022-09-09T09:06:59;3.00;;;1.10;;
4409;SDS011;2218;51.408;7.208;2022-09-09T09:09:42;4.40;;;1.43;;
4409;SDS011;2218;51.408;7.208;2022-09-09T09:12:26;4.60;;;1.30;;
4409;SDS011;2218;51.408;7.208;2022-09-09T09:15:01;4.50;;;1.20;;
4409;SDS011;2218;51.408;7.208;2022-09-09T09:17:41;2.27;;;1.07;;
4409;SDS011;2218;51.408;7.208;2022-09-09T09:20:12;3.13;;;1.20;;
4409;SDS011;2218;51.408;7.208;2022-09-09T09:22:44;3.10;;;1.23;;
4409;SDS011;2218;51.408;7.208;2022-09-09T09:25:19;2.00;;;1.03;;
4409;SDS011;2218;51.408;7.208;2022-09-09T09:27:51;2.27;;;1.07;;
4409;SDS011;2218;51.408;7.208;2022-09-09T09:30:28;2.60;;;0.80;;
4409;SDS011;2218;51.408;7.208;2022-09-09T09:33:08;1.80;;;1.07;;
4409;SDS011;2218;51.408;7.208;2022-09-09T09:35:48;1.90;;;1.00;;
4409;SDS011;2218;51.408;7.208;2022-09-09T09:38:16;1.73;;;0.83;;
4409;SDS011;2218;51.408;7.208;2022-09-09T09:40:49;2.60;;;1.10;;
4409;SDS011;2218;51.408;7.208;2022-09-09T09:43:21;1.53;;;0.87;;
4409;SDS011;2218;51.408;7.208;2022-09-09T09:45:53;2.80;;;0.80;;
4409;SDS011;2218;51.408;7.208;2022-09-09T09:48:20;2.43;;;1.00;;
4409;SDS011;2218;51.408;7.208;2022-09-09T09:50:49;2.03;;;1.20;;
4409;SDS011;2218;51.408;7.208;2022-09-09T09:53:20;3.90;;;1.17;;
4409;SDS011;2218;51.408;7.208;2022-09-09T09:55:53;2.73;;;0.97;;
4409;SDS011;2218;51.408;7.208;2022-09-09T09:58:26;3.47;;;1.10;;
4409;SDS011;2218;51.408;7.208;2022-09-09T10:00:59;3.40;;;1.20;;
4409;SDS011;2218;51.408;7.208;2022-09-09T10:03:29;3.57;;;1.00;;
4409;SDS011;2218;51.408;7.208;2022-09-09T10:06:02;2.53;;;1.10;;
4409;SDS011;2218;51.408;7.208;2022-09-09T10:08:33;3.90;;;1.13;;
4409;SDS011;2218;51.408;7.208;2022-09-09T10:11:22;3.80;;;1.20;;
4409;SDS011;2218;51.408;7.208;2022-09-09T10:14:11;5.70;;;1.37;;
4409;SDS011;2218;51.408;7.208;2022-09-09T10:16:50;3.10;;;0.93;;
4409;SDS011;2218;51.408;7.208;2022-09-09T10:19:35;3.93;;;1.00;;
4409;SDS011;2218;51.408;7.208;2022-09-09T10:22:19;1.30;;;0.83;;
4409;SDS011;2218;51.408;7.208;2022-09-09T10:25:05;1.67;;;0.77;;
4409;SDS011;2218;51.408;7.208;2022-09-09T10:28:02;2.57;;;1.00;;
4409;SDS011;2218;51.408;7.208;2022-09-09T10:30:59;0.90;;;0.50;;
4409;SDS011;2218;51.408;7.208;2022-09-09T10:33:45;1.40;;;0.53;;
4409;SDS011;2218;51.408;7.208;2022-09-09T10:36:19;0.70;;;0.40;;
4409;SDS011;2218;51.408;7.208;2022-09-09T10:38:52;0.70;;;0.50;;
4409;SDS011;2218;51.408;7.208;2022-09-09T10:41:40;1.00;;;0.40;;
4409;SDS011;2218;51.408;7.208;2022-09-09T10:44:23;1.10;;;0.50;;
4409;SDS011;2218;51.408;7.208;2022-09-09T10:47:42;2.67;;;0.53;;
4409;SDS011;2218;51.408;7.208;2022-09-09T10:50:42;0.80;;;0.40;;
4409;SDS011;2218;51.408;7.208;2022-09-09T10:53:22;0.90;;;0.60;;
4409;SDS011;2218;51.408;7.208;2022-09-09T10:56:04;0.70;;;0.40;;
4409;SDS011;2218;51.408;7.208;2022-09-09T10:58:36;0.80;;;0.50;;
4409;SDS011;2218;51.408;7.208;2022-09-09T11:01:13;0.80;;;0.50;;
4409;SDS011;2218;51.408;7.208;2022-09-09T11:03:49;0.87;;;0.53;;
4409;SDS011;2218;51.408;7.208;2022-09-09T11:06:25;0.70;;;0.47;;
4409;SDS011;2218;51.408;7.208;2022-09-09T11:09:00;0.70;;;0.40;;
4409;SDS011;2218;51.408;7.208;2022-09-09T11:11:32;1.10;;;0.50;;
4409;SDS011;2218;51.408;7.208;2022-09-09T11:14:07;3.23;;;0.50;;
4409;SDS011;2218;51.408;7.208;2022-09-09T11:16:42;1.50;;;0.50;;
4409;SDS011;2218;51.408;7.208;2022-09-09T11:19:19;1.30;;;0.60;;
4409;SDS011;2218;51.408;7.208;2022-09-09T11:21:53;2.40;;;0.60;;
4409;SDS011;2218;51.408;7.208;2022-09-09T11:24:26;0.80;;;0.50;;
4409;SDS011;2218;51.408;7.208;2022-09-09T11:27:00;0.70;;;0.50;;
4409;SDS011;2218;51.408;7.208;2022-09-09T11:32:59;1.23;;;0.47;;
4409;SDS011;2218;51.408;7.208;2022-09-09T11:36:13;1.10;;;0.50;;
4409;SDS011;2218;51.408;7.208;2022-09-09T11:39:06;2.20;;;0.60;;
4409;SDS011;2218;51.408;7.208;2022-09-09T11:42:05;1.07;;;0.40;;
4409;SDS011;2218;51.408;7.208;2022-09-09T11:44:34;1.77;;;0.60;;
4409;SDS011;2218;51.408;7.208;2022-09-09T11:47:01;1.20;;;0.53;;
4409;SDS011;2218;51.408;7.208;2022-09-09T11:49:29;1.33;;;0.50;;
4409;SDS011;2218;51.408;7.208;2022-09-09T11:52:12;2.63;;;0.60;;
4409;SDS011;2218;51.408;7.208;2022-09-09T11:54:50;0.70;;;0.50;;
4409;SDS011;2218;51.408;7.208;2022-09-09T11:57:22;1.00;;;0.70;;
4409;SDS011;2218;51.408;7.208;2022-09-09T11:59:56;2.10;;;0.50;;
4409;SDS011;2218;51.408;7.208;2022-09-09T12:02:25;2.13;;;0.60;;
4409;SDS011;2218;51.408;7.208;2022-09-09T12:04:57;2.50;;;0.60;;
4409;SDS011;2218;51.408;7.208;2022-09-09T12:07:33;1.20;;;0.50;;
4409;SDS011;2218;51.408;7.208;2022-09-09T12:10:05;0.90;;;0.60;;
4409;SDS011;2218;51.408;7.208;2022-09-09T12:12:51;0.70;;;0.50;;
4409;SDS011;2218;51.408;7.208;2022-09-09T12:15:28;1.13;;;0.50;;
4409;SDS011;2218;51.408;7.208;2022-09-09T12:17:56;0.70;;;0.43;;
4409;SDS011;2218;51.408;7.208;2022-09-09T12:20:26;1.57;;;0.50;;
4409;SDS011;2218;51.408;7.208;2022-09-09T12:23:09;0.70;;;0.40;;
4409;SDS011;2218;51.408;7.208;2022-09-09T12:26:13;2.00;;;0.50;;
4409;SDS011;2218;51.408;7.208;2022-09-09T12:28:56;5.33;;;0.50;;
4409;SDS011;2218;51.408;7.208;2022-09-09T12:31:39;1.20;;;0.50;;
4409;SDS011;2218;51.408;7.208;2022-09-09T12:34:14;1.87;;;0.40;;
4409;SDS011;2218;51.408;7.208;2022-09-09T12:36:49;0.70;;;0.40;;
4409;SDS011;2218;51.408;7.208;2022-09-09T12:39:28;0.70;;;0.40;;
4409;SDS011;2218;51.408;7.208;2022-09-09T12:42:01;0.70;;;0.50;;
4409;SDS011;2218;51.408;7.208;2022-09-09T12:44:29;1.37;;;0.60;;
4409;SDS011;2218;51.408;7.208;2022-09-09T12:46:58;1.00;;;0.50;;
4409;SDS011;2218;51.408;7.208;2022-09-09T12:49:29;0.70;;;0.50;;
4409;SDS011;2218;51.408;7.208;2022-09-09T12:52:02;1.00;;;0.50;;
4409;SDS011;2218;51.408;7.208;2022-09-09T12:54:34;0.80;;;0.50;;
4409;SDS011;2218;51.408;7.208;2022-09-09T12:57:04;1.00;;;0.50;;
4409;SDS011;2218;51.408;7.208;2022-09-09T12:59:37;0.70;;;0.50;;
4409;SDS011;2218;51.408;7.208;2022-09-09T13:02:11;1.80;;;0.50;;
4409;SDS011;2218;51.408;7.208;2022-09-09T13:04:46;0.90;;;0.50;;
4409;SDS011;2218;51.408;7.208;2022-09-09T13:07:15;0.70;;;0.50;;
4409;SDS011;2218;51.408;7.208;2022-09-09T13:09:45;1.10;;;0.50;;
4409;SDS011;2218;51.408;7.208;2022-09-09T13:12:15;2.50;;;0.60;;
4409;SDS011;2218;51.408;7.208;2022-09-09T13:14:46;1.13;;;0.60;;
4409;SDS011;2218;51.408;7.208;2022-09-09T13:17:20;1.20;;;0.60;;
4409;SDS011;2218;51.408;7.208;2022-09-09T13:19:50;0.70;;;0.50;;
4409;SDS011;2218;51.408;7.208;2022-09-09T13:22:21;0.70;;;0.50;;
4409;SDS011;2218;51.408;7.208;2022-09-09T13:25:04;0.93;;;0.50;;
4409;SDS011;2218;51.408;7.208;2022-09-09T13:27:51;1.10;;;0.40;;
4409;SDS011;2218;51.408;7.208;2022-09-09T13:30:23;0.80;;;0.50;;
4409;SDS011;2218;51.408;7.208;2022-09-09T13:33:00;0.73;;;0.50;;
4409;SDS011;2218;51.408;7.208;2022-09-09T13:35:48;0.80;;;0.40;;
4409;SDS011;2218;51.408;7.208;2022-09-09T13:38:20;0.70;;;0.50;;
4409;SDS011;2218;51.408;7.208;2022-09-09T13:40:58;0.73;;;0.50;;
4409;SDS011;2218;51.408;7.208;2022-09-09T13:43:30;0.70;;;0.50;;
4409;SDS011;2218;51.408;7.208;2022-09-09T13:46:03;0.93;;;0.50;;
4409;SDS011;2218;51.408;7.208;2022-09-09T13:48:53;1.30;;;0.40;;
4409;SDS011;2218;51.408;7.208;2022-09-09T13:51:27;0.70;;;0.50;;
4409;SDS011;2218;51.408;7.208;2022-09-09T13:54:02;0.70;;;0.43;;
4409;SDS011;2218;51.408;7.208;2022-09-09T13:56:32;0.70;;;0.50;;
4409;SDS011;2218;51.408;7.208;2022-09-09T13:59:00;0.90;;;0.40;;
4409;SDS011;2218;51.408;7.208;2022-09-09T14:01:28;0.93;;;0.50;;
4409;SDS011;2218;51.408;7.208;2022-09-09T14:03:56;1.00;;;0.47;;
4409;SDS011;2218;51.408;7.208;2022-09-09T14:06:23;1.03;;;0.40;;
4409;SDS011;2218;51.408;7.208;2022-09-09T14:08:51;0.70;;;0.50;;
4409;SDS011;2218;51.408;7.208;2022-09-09T14:11:20;3.17;;;0.40;;
4409;SDS011;2218;51.408;7.208;2022-09-09T14:13:48;0.70;;;0.40;;
4409;SDS011;2218;51.408;7.208;2022-09-09T14:16:15;0.70;;;0.40;;
4409;SDS011;2218;51.408;7.208;2022-09-09T14:18:43;1.57;;;0.40;;
4409;SDS011;2218;51.408;7.208;2022-09-09T14:21:11;1.00;;;0.50;;
4409;SDS011;2218;51.408;7.208;2022-09-09T14:23:38;1.03;;;0.50;;
4409;SDS011;2218;51.408;7.208;2022-09-09T14:26:07;1.30;;;0.50;;
4409;SDS011;2218;51.408;7.208;2022-09-09T14:28:35;0.70;;;0.50;;
4409;SDS011;2218;51.408;7.208;2022-09-09T14:31:04;0.70;;;0.40;;
4409;SDS011;2218;51.408;7.208;2022-09-09T14:33:31;0.80;;;0.40;;
4409;SDS011;2218;51.408;7.208;2022-09-09T14:35:59;0.70;;;0.40;;
4409;SDS011;2218;51.408;7.208;2022-09-09T14:38:28;0.70;;;0.40;;
4409;SDS011;2218;51.408;7.208;2022-09-09T14:40:57;0.70;;;0.40;;
4409;SDS011;2218;51.408;7.208;2022-09-09T14:43:24;0.70;;;0.47;;
4409;SDS011;2218;51.408;7.208;2022-09-09T14:45:52;0.70;;;0.40;;
4409;SDS011;2218;51.408;7.208;2022-09-09T14:48:20;0.70;;;0.50;;
4409;SDS011;2218;51.408;7.208;2022-09-09T14:50:47;1.30;;;0.40;;
4409;SDS011;2218;51.408;7.208;2022-09-09T14:53:14;2.30;;;0.50;;
4409;SDS011;2218;51.408;7.208;2022-09-09T14:55:43;1.33;;;0.63;;
4409;SDS011;2218;51.408;7.208;2022-09-09T14:58:11;0.70;;;0.40;;
4409;SDS011;2218;51.408;7.208;2022-09-09T15:00:39;0.80;;;0.40;;
4409;SDS011;2218;51.408;7.208;2022-09-09T15:03:06;0.70;;;0.40;;
4409;SDS011;2218;51.408;7.208;2022-09-09T15:05:34;0.70;;;0.50;;
4409;SDS011;2218;51.408;7.208;2022-09-09T15:08:02;0.70;;;0.47;;
4409;SDS011;2218;51.408;7.208;2022-09-09T15:10:29;0.60;;;0.40;;
4409;SDS011;2218;51.408;7.208;2022-09-09T15:12:57;0.70;;;0.40;;
4409;SDS011;2218;51.408;7.208;2022-09-09T15:15:23;1.20;;;0.57;;
4409;SDS011;2218;51.408;7.208;2022-09-09T15:17:51;0.70;;;0.40;;
4409;SDS011;2218;51.408;7.208;2022-09-09T15:20:18;0.70;;;0.40;;
4409;SDS011;2218;51.408;7.208;2022-09-09T15:22:46;3.60;;;0.50;;
4409;SDS011;2218;51.408;7.208;2022-09-09T15:25:13;0.70;;;0.50;;
4409;SDS011;2218;51.408;7.208;2022-09-09T15:27:42;0.60;;;0.40;;
4409;SDS011;2218;51.408;7.208;2022-09-09T15:30:10;0.70;;;0.40;;
4409;SDS011;2218;51.408;7.208;2022-09-09T15:32:38;1.20;;;0.40;;
4409;SDS011;2218;51.408;7.208;2022-09-09T15:35:05;0.70;;;0.40;;
4409;SDS011;2218;51.408;7.208;2022-09-09T15:37:33;0.60;;;0.40;;
4409;SDS011;2218;51.408;7.208;2022-09-09T15:40:01;1.10;;;0.40;;
4409;SDS011;2218;51.408;7.208;2022-09-09T15:42:29;0.70;;;0.40;;
4409;SDS011;2218;51.408;7.208;2022-09-09T15:44:56;0.70;;;0.40;;
4409;SDS011;2218;51.408;7.208;2022-09-09T15:47:23;0.70;;;0.40;;
4409;SDS011;2218;51.408;7.208;2022-09-09T15:49:50;0.80;;;0.40;;
4409;SDS011;2218;51.408;7.208;2022-09-09T15:52:17;0.70;;;0.40;;
4409;SDS011;2218;51.408;7.208;2022-09-09T15:54:44;0.70;;;0.40;;
4409;SDS011;2218;51.408;7.208;2022-09-09T15:57:12;0.70;;;0.40;;
4409;SDS011;2218;51.408;7.208;2022-09-09T15:59:39;0.63;;;0.40;;